Lattimore, NC (28089)

6:05 PM EST on February 08, 2016 (GMT -0500)
KD4YTI | | Change Station
CLOSE
Current Station
Personal Weather Station
Location: Shelby, NC
Elevation: 804 ft
Nearby Weather Stations

Elev 804 ft 35.26 °N, 81.64 °W | Updated 3 minutes ago

Overcast
Overcast
45.9 °F
Feels Like 43 °F
N
6.3
Wind Variable Wind from SW

Today
High -- | Low -- °F
--% Chance of Precip.
Yesterday
High -- | Low -- °F
Precip. -- in
Pressure 29.66 in
Visibility 10.0 miles
Clouds Scattered Clouds 11000 ft
Windchill 43 °F
Dew Point 29 °F
Humidity 52%
Rainfall 0.00 in
Snow Depth Not available.
7:20 AM 6:01 PM
New Moon, 0% visible
METAR KEHO 082255Z AUTO 23010G16KT 10SM SCT110 08/M01 A2966 RMK AO2 T00751013
Pressure 29.66 in
Visibility 10.0 miles
Clouds Scattered Clouds 11000 ft
Windchill 43 °F
Dew Point 29 °F
Humidity 52%
Rainfall 0.00 in
Snow Depth Not available.
7:20 AM 6:01 PM
New Moon, 0% visible
METAR KEHO 082255Z AUTO 23010G16KT 10SM SCT110 08/M01 A2966 RMK AO2 T00751013

10-Day Weather Forecast

Almanac

Astronomy

Feb. 08, 2016 Rise Set
Actual Time
Civil Twilight
Nautical Twilight
Astronomical Twilight
Moon
Length of Visible Light
Length of Day
Tomorrow will be .
, % of the Moon is Illuminated

Today's Extremes

State Highs State Lows

Community

WunderPhotos

Upload Photos

1,891,523 photos uploaded!

WunderBlog® & News

Nearby

Air Quality

  Air Quality AQ Index Pollutant
Not available.

Snow Depth

Station Depth Elevation

Earthquake Activity

City Distance Mag. Time & Date
Minimum magnitude displayed is 2.5.

Coastal Water Temperatures

Place Temperature

Stations

Nearby Weather Stations

Station Location Temp. Windchill Dew Point Humidity Wind Precip. Elev Updated Type
                   

Watches & Warnings

There are currently no watches in effect.